createdAt,value
2022-10-05T00:00:46.550Z,15.90
2022-10-05T00:03:16.487Z,17.30
2022-10-05T00:05:47.454Z,15.93
2022-10-05T00:08:22.042Z,16.35
2022-10-05T00:10:52.196Z,16.45
2022-10-05T00:13:24.498Z,16.38
2022-10-05T00:15:54.343Z,16.80
2022-10-05T00:18:23.453Z,16.45
2022-10-05T00:20:51.986Z,16.08
2022-10-05T00:23:31.206Z,16.73
2022-10-05T00:26:08.469Z,15.75
2022-10-05T00:28:37.978Z,15.15
2022-10-05T00:31:15.731Z,15.00
2022-10-05T00:33:47.417Z,17.20
2022-10-05T00:36:16.408Z,17.60
2022-10-05T00:38:48.038Z,18.92
2022-10-05T00:41:22.763Z,18.02
2022-10-05T00:44:25.481Z,18.15
2022-10-05T00:46:58.568Z,18.10
2022-10-05T00:49:51.170Z,18.30
2022-10-05T00:52:31.657Z,18.40
2022-10-05T00:55:09.224Z,17.40
2022-10-05T00:57:48.141Z,17.60
2022-10-05T01:00:21.452Z,17.77
2022-10-05T01:02:58.506Z,17.98
2022-10-05T01:05:44.704Z,17.52
2022-10-05T01:08:25.226Z,16.92
2022-10-05T01:11:03.491Z,16.02
2022-10-05T01:13:41.042Z,17.15
2022-10-05T01:16:16.733Z,17.23
2022-10-05T01:18:51.946Z,15.35
2022-10-05T01:22:00.779Z,16.95
2022-10-05T01:27:22.714Z,16.30
2022-10-05T01:30:00.546Z,17.27
2022-10-05T01:32:35.101Z,18.17
2022-10-05T01:35:15.972Z,17.92
2022-10-05T01:37:53.520Z,17.70
2022-10-05T01:40:32.939Z,18.63
2022-10-05T01:43:11.511Z,20.08
2022-10-05T01:45:51.854Z,21.15
2022-10-05T01:48:27.949Z,21.58
2022-10-05T01:51:04.473Z,22.58
2022-10-05T01:53:47.670Z,21.00
2022-10-05T01:56:23.893Z,21.55
2022-10-05T01:59:02.287Z,21.95
2022-10-05T02:01:39.880Z,20.92
2022-10-05T02:04:29.573Z,18.98
2022-10-05T02:07:07.844Z,17.38
2022-10-05T02:09:41.981Z,17.70
2022-10-05T02:12:16.619Z,15.63
2022-10-05T02:14:48.472Z,15.10
2022-10-05T02:17:21.222Z,15.57
2022-10-05T02:19:52.511Z,15.52
2022-10-05T02:22:27.382Z,15.27
2022-10-05T02:25:00.030Z,13.82
2022-10-05T02:27:32.249Z,14.75
2022-10-05T02:30:05.950Z,14.10
2022-10-05T02:32:38.474Z,15.35
2022-10-05T02:35:15.868Z,16.40
2022-10-05T02:37:54.336Z,16.65
2022-10-05T02:40:51.454Z,18.67
2022-10-05T02:43:28.807Z,20.70
2022-10-05T02:46:06.558Z,21.63
2022-10-05T02:48:47.669Z,19.98
2022-10-05T02:51:24.252Z,19.45
2022-10-05T02:54:02.481Z,19.60
2022-10-05T02:56:39.130Z,17.88
2022-10-05T02:59:16.453Z,17.90
2022-10-05T03:01:50.882Z,18.40
2022-10-05T03:04:33.168Z,17.08
2022-10-05T03:07:11.274Z,16.60
2022-10-05T03:09:45.924Z,15.98
2022-10-05T03:12:30.383Z,15.90
2022-10-05T03:15:04.942Z,15.98
2022-10-05T03:17:43.551Z,15.55
2022-10-05T03:20:25.111Z,15.57
2022-10-05T03:22:59.164Z,15.52
2022-10-05T03:26:11.287Z,14.63
2022-10-05T03:28:51.983Z,15.15
2022-10-05T03:31:27.032Z,15.93
2022-10-05T03:34:01.965Z,16.45
2022-10-05T03:36:37.727Z,17.25
2022-10-05T03:39:13.932Z,16.13
2022-10-05T03:41:46.571Z,15.77
2022-10-05T03:44:40.666Z,16.60
2022-10-05T03:47:22.249Z,16.98
2022-10-05T03:50:06.517Z,17.58
2022-10-05T03:52:53.145Z,19.20
2022-10-05T03:55:30.058Z,18.08
2022-10-05T03:58:12.049Z,19.55
2022-10-05T04:00:43.712Z,18.83
2022-10-05T04:03:18.765Z,17.98
2022-10-05T04:05:52.162Z,17.33
2022-10-05T04:08:30.404Z,18.05
2022-10-05T04:11:02.735Z,17.50
2022-10-05T04:13:36.627Z,18.03
2022-10-05T04:16:12.322Z,17.52
2022-10-05T04:18:46.066Z,17.95
2022-10-05T04:21:23.964Z,17.23
2022-10-05T04:24:01.087Z,17.13
2022-10-05T04:26:36.002Z,15.70
2022-10-05T04:29:13.674Z,17.10
2022-10-05T04:32:04.686Z,16.58
2022-10-05T04:34:54.824Z,17.98
2022-10-05T04:37:30.138Z,15.85
2022-10-05T04:40:16.574Z,16.38
2022-10-05T04:42:55.475Z,17.55
2022-10-05T04:45:38.255Z,16.55
2022-10-05T04:48:25.534Z,17.85
2022-10-05T04:51:09.319Z,16.75
2022-10-05T04:53:42.016Z,16.85
2022-10-05T04:56:15.655Z,16.55
2022-10-05T04:59:09.670Z,15.85
2022-10-05T05:02:01.393Z,16.83
2022-10-05T05:04:50.843Z,17.38
2022-10-05T05:07:33.541Z,17.50
2022-10-05T05:10:25.709Z,18.50
2022-10-05T05:13:08.063Z,16.20
2022-10-05T05:15:46.907Z,18.98
2022-10-05T05:18:39.532Z,18.23
2022-10-05T05:21:18.572Z,18.35
2022-10-05T05:23:53.652Z,18.35
2022-10-05T05:26:32.751Z,17.77
2022-10-05T05:29:15.408Z,18.73
2022-10-05T05:31:49.578Z,19.55
2022-10-05T05:34:34.925Z,20.88
2022-10-05T05:37:14.006Z,19.92
2022-10-05T05:39:54.934Z,17.42
2022-10-05T05:42:37.536Z,19.27
2022-10-05T05:45:17.043Z,19.75
2022-10-05T05:47:53.879Z,17.45
2022-10-05T05:50:34.516Z,18.45
2022-10-05T05:53:10.912Z,20.05
2022-10-05T05:55:44.399Z,17.95
2022-10-05T05:58:22.364Z,19.10
2022-10-05T06:00:59.044Z,18.45
2022-10-05T06:03:36.186Z,19.48
2022-10-05T06:06:10.049Z,19.65
2022-10-05T06:08:42.395Z,20.10
2022-10-05T06:11:19.656Z,18.95
2022-10-05T06:14:01.567Z,16.60
2022-10-05T06:16:52.212Z,18.38
2022-10-05T06:19:43.505Z,18.00
2022-10-05T06:22:24.873Z,18.33
2022-10-05T06:25:20.706Z,19.27
2022-10-05T06:28:10.722Z,17.55
2022-10-05T06:30:52.849Z,18.10
2022-10-05T06:33:38.808Z,17.98
2022-10-05T06:36:16.550Z,18.20
2022-10-05T06:39:13.614Z,19.55
2022-10-05T06:41:58.944Z,17.40
2022-10-05T06:44:34.393Z,18.67
2022-10-05T06:47:18.611Z,18.33
2022-10-05T06:49:58.918Z,19.65
2022-10-05T06:52:33.729Z,18.25
2022-10-05T06:55:14.491Z,18.67
2022-10-05T06:58:01.460Z,18.42
2022-10-05T07:00:36.835Z,18.13
2022-10-05T07:03:13.582Z,17.20
2022-10-05T07:05:54.051Z,17.52
2022-10-05T07:08:35.736Z,17.02
2022-10-05T07:11:14.939Z,17.70
2022-10-05T07:14:15.260Z,16.48
2022-10-05T07:16:58.043Z,17.52
2022-10-05T07:19:38.108Z,15.38
2022-10-05T07:22:24.007Z,16.00
2022-10-05T07:25:01.411Z,15.60
2022-10-05T07:27:35.067Z,15.88
2022-10-05T07:30:09.222Z,15.98
2022-10-05T07:32:45.830Z,15.48
2022-10-05T07:35:41.643Z,16.48
2022-10-05T07:38:20.383Z,16.48
2022-10-05T07:40:54.649Z,16.58
2022-10-05T07:43:51.451Z,16.63
2022-10-05T07:46:28.118Z,16.45
2022-10-05T07:49:07.049Z,15.95
2022-10-05T07:51:41.402Z,16.15
2022-10-05T07:54:21.171Z,16.73
2022-10-05T07:56:54.050Z,15.77
2022-10-05T07:59:31.854Z,17.15
2022-10-05T08:02:11.021Z,16.92
2022-10-05T08:04:48.375Z,17.27
2022-10-05T08:07:20.278Z,15.07
2022-10-05T08:09:55.849Z,13.73
2022-10-05T08:12:34.030Z,15.38
2022-10-05T08:15:10.617Z,14.82
2022-10-05T08:17:50.477Z,14.52
2022-10-05T08:20:42.168Z,13.85
2022-10-05T08:23:22.420Z,14.20
2022-10-05T08:26:13.994Z,14.07
2022-10-05T08:28:51.270Z,15.05
2022-10-05T08:31:25.349Z,13.00
2022-10-05T08:34:00.336Z,13.00
2022-10-05T08:36:53.833Z,14.43
2022-10-05T08:39:25.024Z,13.50
2022-10-05T08:42:20.758Z,13.52
2022-10-05T08:45:11.887Z,13.73
2022-10-05T08:48:01.541Z,14.65
2022-10-05T08:51:08.146Z,13.25
2022-10-05T08:54:14.805Z,14.80
2022-10-05T08:56:47.319Z,13.98
2022-10-05T08:59:41.279Z,14.80
2022-10-05T09:02:25.257Z,15.43
2022-10-05T09:05:19.340Z,15.65
2022-10-05T09:08:22.938Z,14.88
2022-10-05T09:11:07.013Z,14.98
2022-10-05T09:14:15.580Z,15.75
2022-10-05T09:16:55.762Z,15.32
2022-10-05T09:19:54.320Z,14.43
2022-10-05T09:22:45.255Z,15.27
2022-10-05T09:25:23.367Z,15.57
2022-10-05T09:27:58.236Z,14.88
2022-10-05T09:30:52.001Z,14.98
2022-10-05T09:33:55.873Z,13.32
2022-10-05T09:39:32.922Z,13.25
2022-10-05T09:42:28.882Z,13.38
2022-10-05T09:45:25.411Z,12.50
2022-10-05T09:48:43.222Z,10.82
2022-10-05T09:51:50.332Z,10.50
2022-10-05T09:54:57.146Z,10.77
2022-10-05T09:58:23.550Z,9.75
2022-10-05T10:01:28.993Z,8.70
2022-10-05T10:04:30.790Z,6.88
2022-10-05T10:07:34.563Z,6.72
2022-10-05T10:13:02.111Z,6.13
2022-10-05T10:16:02.266Z,6.35
2022-10-05T10:19:04.140Z,6.15
2022-10-05T10:22:15.357Z,6.15
2022-10-05T10:25:13.956Z,5.40
2022-10-05T10:27:59.058Z,4.90
2022-10-05T10:30:51.990Z,5.03
2022-10-05T10:33:54.930Z,4.68
2022-10-05T10:36:38.494Z,4.90
2022-10-05T10:39:16.252Z,4.57
2022-10-05T10:42:26.079Z,4.45
2022-10-05T10:45:20.142Z,4.50
2022-10-05T10:47:58.506Z,4.43
2022-10-05T10:50:54.265Z,4.00
2022-10-05T10:53:56.272Z,4.18
2022-10-05T10:56:42.551Z,4.13
2022-10-05T10:59:53.764Z,4.07
2022-10-05T11:02:47.422Z,4.10
2022-10-05T11:05:37.076Z,3.65
2022-10-05T11:08:41.764Z,3.53
2022-10-05T11:11:36.873Z,3.70
2022-10-05T11:14:42.923Z,4.00
2022-10-05T11:17:44.233Z,4.32
2022-10-05T11:20:41.506Z,3.38
2022-10-05T11:23:36.506Z,4.25
2022-10-05T11:26:29.836Z,3.97
2022-10-05T11:29:34.431Z,3.58
2022-10-05T11:33:10.920Z,3.50
2022-10-05T11:36:34.833Z,3.35
2022-10-05T11:42:33.801Z,2.88
2022-10-05T11:45:27.512Z,3.25
2022-10-05T11:48:24.822Z,3.33
2022-10-05T11:51:28.614Z,3.17
2022-10-05T11:54:18.712Z,2.97
2022-10-05T11:57:02.579Z,3.40
2022-10-05T11:59:42.459Z,3.05
2022-10-05T12:02:38.838Z,2.97
2022-10-05T12:05:18.410Z,3.03
2022-10-05T12:08:00.704Z,2.70
2022-10-05T12:10:38.240Z,2.50
2022-10-05T12:13:15.010Z,2.40
2022-10-05T12:15:54.183Z,2.42
2022-10-05T12:18:56.873Z,2.22
2022-10-05T12:21:40.254Z,1.80
2022-10-05T12:24:17.167Z,2.15
2022-10-05T12:26:51.888Z,2.17
2022-10-05T12:29:28.689Z,2.45
2022-10-05T12:32:06.369Z,2.28
2022-10-05T12:34:47.915Z,1.98
2022-10-05T12:37:42.129Z,2.15
2022-10-05T12:40:25.060Z,2.38
2022-10-05T12:43:00.132Z,2.40
2022-10-05T12:45:48.182Z,2.33
2022-10-05T12:48:53.275Z,2.03
2022-10-05T12:51:29.635Z,1.88
2022-10-05T12:54:04.004Z,2.08
2022-10-05T12:56:43.907Z,1.95
2022-10-05T12:59:24.650Z,1.80
2022-10-05T13:02:01.919Z,1.90
2022-10-05T13:04:41.557Z,2.20
2022-10-05T13:07:21.381Z,2.10
2022-10-05T13:09:57.055Z,2.10
2022-10-05T13:15:40.269Z,2.20
2022-10-05T13:18:21.856Z,1.90
2022-10-05T13:21:04.940Z,2.65
2022-10-05T13:23:53.731Z,2.40
2022-10-05T13:26:37.708Z,1.83
2022-10-05T13:29:30.716Z,2.35
2022-10-05T13:32:13.758Z,1.83
2022-10-05T13:37:36.451Z,2.40
2022-10-05T13:40:23.606Z,2.05
2022-10-05T13:43:04.144Z,1.88
2022-10-05T13:45:39.998Z,2.00
2022-10-05T13:48:20.333Z,3.13
2022-10-05T13:51:03.976Z,2.13
2022-10-05T13:53:41.465Z,2.22
2022-10-05T13:56:17.829Z,2.20
2022-10-05T13:58:52.088Z,2.03
2022-10-05T14:01:31.414Z,2.00
2022-10-05T14:04:19.086Z,2.20
2022-10-05T14:06:50.067Z,2.17
2022-10-05T14:09:30.113Z,2.00
2022-10-05T14:12:20.781Z,2.40
2022-10-05T14:14:52.004Z,2.10
2022-10-05T14:17:40.125Z,2.58
2022-10-05T14:20:31.242Z,2.28
2022-10-05T14:23:03.043Z,2.45
2022-10-05T14:25:32.562Z,2.00
2022-10-05T14:28:03.888Z,1.92
2022-10-05T14:30:33.667Z,2.08
2022-10-05T14:33:15.611Z,2.10
2022-10-05T14:35:50.151Z,2.27
2022-10-05T14:38:22.714Z,2.22
2022-10-05T14:41:19.733Z,2.10
2022-10-05T14:43:53.420Z,2.17
2022-10-05T14:46:28.303Z,2.17
2022-10-05T14:49:23.653Z,1.90
2022-10-05T14:51:53.355Z,2.13
2022-10-05T14:54:31.065Z,2.35
2022-10-05T14:57:10.148Z,2.00
2022-10-05T15:00:00.480Z,2.60
2022-10-05T15:02:51.467Z,2.13
2022-10-05T15:05:31.353Z,2.17
2022-10-05T15:08:09.814Z,2.10
2022-10-05T15:10:46.685Z,2.10
2022-10-05T15:13:20.681Z,2.60
2022-10-05T15:15:54.654Z,2.53
2022-10-05T15:18:32.335Z,2.53
2022-10-05T15:21:13.441Z,2.33
2022-10-05T15:23:47.498Z,2.78
2022-10-05T15:26:33.081Z,2.53
2022-10-05T15:29:08.005Z,2.20
2022-10-05T15:31:41.936Z,2.10
2022-10-05T15:34:17.166Z,2.10
2022-10-05T15:36:54.112Z,2.22
2022-10-05T15:39:34.751Z,2.80
2022-10-05T15:42:11.530Z,2.10
2022-10-05T15:44:52.123Z,2.70
2022-10-05T15:47:29.585Z,2.08
2022-10-05T15:50:10.700Z,2.15
2022-10-05T15:52:43.917Z,2.30
2022-10-05T15:55:39.629Z,2.40
2022-10-05T15:58:31.252Z,2.70
2022-10-05T16:01:06.341Z,2.40
2022-10-05T16:03:47.509Z,2.53
2022-10-05T16:06:43.161Z,2.47
2022-10-05T16:09:25.444Z,2.45
2022-10-05T16:12:01.772Z,2.70
2022-10-05T16:14:43.323Z,2.70
2022-10-05T16:17:25.895Z,2.95
2022-10-05T16:20:08.039Z,2.65
2022-10-05T16:22:44.753Z,3.67
2022-10-05T16:25:19.378Z,2.90
2022-10-05T16:27:56.427Z,2.80
2022-10-05T16:30:26.341Z,2.80
2022-10-05T16:33:05.360Z,3.25
2022-10-05T16:35:44.492Z,2.90
2022-10-05T16:38:25.903Z,3.40
2022-10-05T16:41:04.185Z,3.30
2022-10-05T16:43:44.851Z,3.90
2022-10-05T16:46:22.334Z,3.63
2022-10-05T16:48:58.702Z,3.63
2022-10-05T16:51:32.995Z,3.58
2022-10-05T16:54:18.362Z,3.70
2022-10-05T16:56:53.414Z,3.50
2022-10-05T16:59:51.423Z,5.55
2022-10-05T17:02:33.484Z,5.03
2022-10-05T17:05:17.693Z,4.45
2022-10-05T17:08:12.573Z,4.90
2022-10-05T17:10:51.073Z,5.97
2022-10-05T17:13:44.513Z,5.70
2022-10-05T17:19:17.208Z,5.97
2022-10-05T17:21:51.819Z,5.10
2022-10-05T17:24:31.300Z,5.75
2022-10-05T17:27:03.983Z,7.15
2022-10-05T17:29:48.124Z,8.10
2022-10-05T17:32:39.583Z,7.35
2022-10-05T17:35:19.311Z,7.35
2022-10-05T17:38:14.823Z,6.80
2022-10-05T17:41:20.040Z,5.45
2022-10-05T17:44:20.523Z,4.03
2022-10-05T17:46:50.233Z,3.40
2022-10-05T17:49:24.141Z,3.60
2022-10-05T17:52:20.524Z,3.83
2022-10-05T17:55:30.744Z,4.38
2022-10-05T17:58:02.078Z,4.63
2022-10-05T18:00:50.149Z,3.67
2022-10-05T18:03:44.442Z,4.05
2022-10-05T18:06:47.567Z,3.40
2022-10-05T18:09:33.128Z,3.50
2022-10-05T18:12:25.654Z,3.33
2022-10-05T18:15:31.168Z,3.17
2022-10-05T18:18:21.994Z,2.97
2022-10-05T18:21:23.411Z,3.65
2022-10-05T18:24:05.056Z,4.22
2022-10-05T18:26:45.046Z,4.38
2022-10-05T18:29:40.462Z,4.28
2022-10-05T18:32:19.518Z,3.60
2022-10-05T18:34:58.637Z,3.30
2022-10-05T18:37:41.260Z,7.28
2022-10-05T18:40:27.795Z,10.20
2022-10-05T18:43:07.434Z,10.40
2022-10-05T18:45:48.347Z,11.70
2022-10-05T18:48:28.053Z,8.65
2022-10-05T18:51:04.672Z,7.18
2022-10-05T18:53:46.309Z,6.70
2022-10-05T18:56:23.868Z,6.05
2022-10-05T18:59:11.326Z,5.75
2022-10-05T19:02:11.982Z,4.13
2022-10-05T19:04:53.509Z,3.80
2022-10-05T19:07:33.329Z,3.22
2022-10-05T19:10:15.318Z,2.63
2022-10-05T19:12:55.087Z,2.50
2022-10-05T19:15:35.134Z,2.60
2022-10-05T19:18:32.022Z,2.22
2022-10-05T19:21:08.448Z,2.00
2022-10-05T19:23:52.891Z,2.65
2022-10-05T19:26:37.154Z,1.80
2022-10-05T19:29:15.657Z,2.00
2022-10-05T19:31:54.497Z,1.52
2022-10-05T19:34:36.545Z,1.92
2022-10-05T19:37:13.905Z,1.80
2022-10-05T19:39:51.365Z,1.50
2022-10-05T19:42:46.167Z,1.88
2022-10-05T19:45:25.753Z,2.47
2022-10-05T19:48:10.723Z,1.90
2022-10-05T19:50:41.518Z,1.80
2022-10-05T19:53:16.334Z,1.70
2022-10-05T19:55:48.220Z,1.60
2022-10-05T19:58:22.065Z,1.55
2022-10-05T20:00:56.472Z,1.98
2022-10-05T20:03:29.090Z,1.52
2022-10-05T20:05:58.975Z,1.92
2022-10-05T20:08:32.007Z,1.88
2022-10-05T20:11:15.942Z,2.00
2022-10-05T20:13:45.762Z,1.70
2022-10-05T20:16:45.840Z,1.80
2022-10-05T20:19:49.436Z,2.25
2022-10-05T20:22:34.128Z,1.63
2022-10-05T20:25:05.681Z,1.85
2022-10-05T20:27:52.382Z,1.70
2022-10-05T20:30:22.736Z,1.50
2022-10-05T20:32:51.363Z,1.60
2022-10-05T20:35:22.931Z,1.50
2022-10-05T20:37:51.296Z,1.75
2022-10-05T20:40:21.256Z,1.83
2022-10-05T20:42:50.256Z,1.70
2022-10-05T20:45:18.565Z,2.03
2022-10-05T20:47:47.262Z,1.90
2022-10-05T20:50:15.999Z,1.90
2022-10-05T20:52:45.516Z,1.98
2022-10-05T20:55:13.902Z,1.77
2022-10-05T20:57:43.089Z,1.90
2022-10-05T21:00:12.985Z,1.88
2022-10-05T21:02:41.035Z,1.88
2022-10-05T21:05:10.080Z,1.98
2022-10-05T21:07:40.900Z,2.03
2022-10-05T21:10:11.031Z,1.45
2022-10-05T21:12:42.149Z,1.83
2022-10-05T21:15:10.888Z,1.63
2022-10-05T21:17:39.963Z,2.35
2022-10-05T21:20:11.547Z,2.83
2022-10-05T21:22:39.660Z,1.73
2022-10-05T21:25:08.963Z,1.75
2022-10-05T21:27:38.601Z,1.70
2022-10-05T21:30:07.673Z,1.90
2022-10-05T21:32:38.557Z,2.00
2022-10-05T21:35:10.368Z,1.73
2022-10-05T21:37:42.943Z,2.00
2022-10-05T21:40:12.000Z,2.25
2022-10-05T21:42:41.705Z,1.95
2022-10-05T21:45:10.848Z,2.17
2022-10-05T21:47:39.072Z,2.38
2022-10-05T21:50:08.582Z,2.13
2022-10-05T21:52:37.209Z,2.30
2022-10-05T21:55:08.807Z,2.08
2022-10-05T21:57:37.303Z,2.45
2022-10-05T22:00:09.973Z,2.70
2022-10-05T22:02:38.189Z,2.20
2022-10-05T22:05:06.752Z,2.40
2022-10-05T22:07:35.128Z,2.55
2022-10-05T22:10:05.706Z,2.20
2022-10-05T22:12:35.250Z,2.05
2022-10-05T22:15:04.965Z,2.20
2022-10-05T22:17:35.190Z,2.42
2022-10-05T22:20:04.257Z,2.40
2022-10-05T22:22:33.081Z,2.25
2022-10-05T22:25:01.664Z,2.40
2022-10-05T22:27:31.900Z,2.40
2022-10-05T22:30:01.213Z,2.30
2022-10-05T22:32:29.756Z,2.40
2022-10-05T22:34:59.642Z,2.70
2022-10-05T22:37:27.683Z,2.55
2022-10-05T22:39:55.712Z,2.72
2022-10-05T22:42:23.585Z,2.70
2022-10-05T22:44:51.580Z,2.65
2022-10-05T22:47:19.701Z,2.85
2022-10-05T22:49:47.639Z,2.65
2022-10-05T22:52:17.351Z,2.92
2022-10-05T22:54:45.340Z,2.70
2022-10-05T22:57:13.420Z,2.70
2022-10-05T22:59:45.162Z,2.40
2022-10-05T23:02:14.155Z,2.65
2022-10-05T23:04:42.662Z,2.50
2022-10-05T23:07:10.812Z,2.70
2022-10-05T23:09:40.950Z,2.88
2022-10-05T23:12:10.557Z,2.28
2022-10-05T23:14:38.630Z,2.58
2022-10-05T23:17:08.061Z,2.20
2022-10-05T23:19:36.372Z,2.58
2022-10-05T23:22:05.021Z,3.20
2022-10-05T23:24:33.917Z,2.70
2022-10-05T23:27:03.579Z,3.00
2022-10-05T23:29:31.909Z,2.75
2022-10-05T23:31:59.932Z,2.95
2022-10-05T23:34:28.071Z,2.58
2022-10-05T23:36:56.288Z,3.03
2022-10-05T23:39:24.551Z,3.13
2022-10-05T23:41:53.227Z,3.17
2022-10-05T23:44:22.962Z,2.60
2022-10-05T23:46:51.392Z,2.70
2022-10-05T23:49:19.326Z,3.05
2022-10-05T23:51:47.233Z,2.88
2022-10-05T23:54:17.245Z,3.05
2022-10-05T23:56:45.990Z,3.10
2022-10-05T23:59:14.102Z,3.00
